createdAt,value
2022-08-02T00:03:36.432Z,100.00
2022-08-02T00:08:38.886Z,100.00
2022-08-02T00:13:41.337Z,100.00
2022-08-02T00:18:44.535Z,100.00
2022-08-02T00:24:27.475Z,100.00
2022-08-02T00:29:09.610Z,100.00
2022-08-02T00:34:30.178Z,100.00
2022-08-02T00:39:35.856Z,100.00
2022-08-02T00:44:38.385Z,100.00
2022-08-02T00:49:40.919Z,100.00
2022-08-02T00:54:43.483Z,100.00
2022-08-02T00:59:45.987Z,100.00
2022-08-02T01:04:48.386Z,100.00
2022-08-02T01:09:50.860Z,100.00
2022-08-02T01:14:57.008Z,100.00
2022-08-02T01:20:35.908Z,100.00
2022-08-02T01:26:07.488Z,100.00
2022-08-02T01:31:27.715Z,100.00
2022-08-02T01:36:41.925Z,100.00
2022-08-02T01:41:45.269Z,100.00
2022-08-02T01:46:50.255Z,100.00
2022-08-02T01:52:13.086Z,100.00
2022-08-02T01:57:17.195Z,100.00
2022-08-02T02:02:21.457Z,100.00
2022-08-02T02:07:24.871Z,98.43
2022-08-02T02:12:28.771Z,94.73
2022-08-02T02:17:52.680Z,92.48
2022-08-02T02:22:56.012Z,95.44
2022-08-02T02:28:04.049Z,99.48
2022-08-02T02:33:09.612Z,96.63
2022-08-02T02:38:16.597Z,94.82
2022-08-02T02:43:20.209Z,90.60
2022-08-02T02:48:24.034Z,93.13
2022-08-02T02:53:27.039Z,88.77
2022-08-02T02:58:30.163Z,91.99
2022-08-02T03:03:33.009Z,96.47
2022-08-02T03:08:35.528Z,100.00
2022-08-02T03:13:40.013Z,100.00
2022-08-02T03:18:44.359Z,100.00
2022-08-02T03:23:47.444Z,100.00
2022-08-02T03:28:49.906Z,96.83
2022-08-02T03:33:53.227Z,98.95
2022-08-02T03:38:57.124Z,100.00
2022-08-02T03:44:00.419Z,98.59
2022-08-02T03:49:03.444Z,100.00
2022-08-02T03:54:06.586Z,100.00
2022-08-02T03:59:14.423Z,98.63
2022-08-02T04:04:16.836Z,96.59
2022-08-02T04:09:19.432Z,91.94
2022-08-02T04:14:22.881Z,93.06
2022-08-02T04:19:32.696Z,92.39
2022-08-02T04:24:47.485Z,92.42
2022-08-02T04:29:53.431Z,91.63
2022-08-02T04:35:18.180Z,88.97
2022-08-02T04:40:18.873Z,87.75
2022-08-02T04:45:23.344Z,86.27
2022-08-02T04:50:25.912Z,85.93
2022-08-02T04:55:31.145Z,86.22
2022-08-02T05:00:34.109Z,92.63
2022-08-02T05:05:36.692Z,94.01
2022-08-02T05:10:39.214Z,95.67
2022-08-02T05:15:41.623Z,98.22
2022-08-02T05:20:44.070Z,100.00
2022-08-02T05:25:46.510Z,95.16
2022-08-02T05:30:48.539Z,88.78
2022-08-02T05:35:51.749Z,86.38
2022-08-02T05:40:54.624Z,87.80
2022-08-02T05:45:57.162Z,88.39
2022-08-02T05:51:05.968Z,86.12
2022-08-02T05:56:31.816Z,82.12
2022-08-02T06:01:40.825Z,82.88
2022-08-02T06:06:44.874Z,81.50
2022-08-02T06:12:01.941Z,80.59
2022-08-02T06:17:14.697Z,79.41
2022-08-02T06:22:33.903Z,76.62
2022-08-02T06:27:41.722Z,76.89
2022-08-02T06:32:45.462Z,74.98
2022-08-02T06:38:03.982Z,72.45
2022-08-02T06:43:14.777Z,75.04
2022-08-02T06:48:16.943Z,74.05
2022-08-02T06:53:19.042Z,73.90
2022-08-02T06:58:21.249Z,72.56
2022-08-02T07:03:25.735Z,72.37
2022-08-02T07:08:32.419Z,71.49
2022-08-02T07:13:39.563Z,70.03
2022-08-02T07:18:42.365Z,70.42
2022-08-02T07:23:44.811Z,67.08
2022-08-02T07:28:47.284Z,66.82
2022-08-02T07:33:49.735Z,67.27
2022-08-02T07:38:53.001Z,66.81
2022-08-02T07:43:55.880Z,65.67
2022-08-02T07:48:58.475Z,64.17
2022-08-02T07:54:02.169Z,64.19
2022-08-02T07:59:06.551Z,63.54
2022-08-02T08:04:09.104Z,63.38
2022-08-02T08:09:12.144Z,62.66
2022-08-02T08:14:16.991Z,62.23
2022-08-02T08:19:19.644Z,61.50
2022-08-02T08:24:42.136Z,60.13
2022-08-02T08:29:46.031Z,58.17
2022-08-02T08:34:49.457Z,58.01
2022-08-02T08:39:56.856Z,58.29
2022-08-02T08:45:01.235Z,55.10
2022-08-02T08:50:06.067Z,53.30
2022-08-02T08:55:12.084Z,51.96
2022-08-02T09:00:16.565Z,52.59
2022-08-02T09:05:19.356Z,52.73
2022-08-02T09:10:41.686Z,53.03
2022-08-02T09:15:46.691Z,52.64
2022-08-02T09:20:57.542Z,51.46
2022-08-02T09:26:07.617Z,51.73
2022-08-02T09:31:11.512Z,49.08
2022-08-02T09:36:16.328Z,47.66
2022-08-02T09:41:27.286Z,49.74
2022-08-02T09:46:33.466Z,45.86
2022-08-02T09:52:02.296Z,47.44
2022-08-02T09:57:05.128Z,51.59
2022-08-02T10:02:17.007Z,47.42
2022-08-02T10:07:22.484Z,45.87
2022-08-02T10:12:25.592Z,42.23
2022-08-02T10:17:28.247Z,40.44
2022-08-02T10:22:32.339Z,42.40
2022-08-02T10:28:03.791Z,39.35
2022-08-02T10:33:03.574Z,35.85
2022-08-02T10:38:11.049Z,36.08
2022-08-02T10:43:34.201Z,37.10
2022-08-02T10:54:47.476Z,41.71
2022-08-02T10:59:52.621Z,46.05
2022-08-02T11:04:55.392Z,50.56
2022-08-02T11:09:59.417Z,50.91
2022-08-02T11:15:07.348Z,52.34
2022-08-02T11:20:13.358Z,51.87
2022-08-02T11:25:24.926Z,45.37
2022-08-02T11:30:29.432Z,39.53
2022-08-02T11:35:34.595Z,37.28
2022-08-02T11:40:40.473Z,36.22
2022-08-02T11:45:42.958Z,35.81
2022-08-02T11:50:46.157Z,32.85
2022-08-02T11:55:48.726Z,31.78
2022-08-02T12:00:53.427Z,31.33
2022-08-02T12:06:05.977Z,32.52
2022-08-02T12:11:09.497Z,30.56
2022-08-02T12:16:32.283Z,33.89
2022-08-02T12:21:34.888Z,40.24
2022-08-02T12:26:47.823Z,39.16
2022-08-02T12:31:56.349Z,45.48
2022-08-02T12:37:05.406Z,47.53
2022-08-02T12:42:10.555Z,47.55
2022-08-02T12:47:16.522Z,47.90
2022-08-02T12:52:24.075Z,43.39
2022-08-02T12:57:26.833Z,32.84
2022-08-02T13:02:31.653Z,30.92
2022-08-02T13:07:34.309Z,31.31
2022-08-02T13:12:39.427Z,30.33
2022-08-02T13:17:42.232Z,30.38
2022-08-02T13:22:47.036Z,33.50
2022-08-02T13:27:55.730Z,32.44
2022-08-02T13:33:01.105Z,35.92
2022-08-02T13:38:06.563Z,37.23
2022-08-02T13:43:09.046Z,37.59
2022-08-02T13:48:18.395Z,42.15
2022-08-02T13:53:22.150Z,40.93
2022-08-02T13:58:24.753Z,42.74
2022-08-02T14:04:08.273Z,39.71
2022-08-02T14:08:50.185Z,39.37
2022-08-02T14:13:52.715Z,40.59
2022-08-02T14:18:55.268Z,41.59
2022-08-02T14:23:57.715Z,41.90
2022-08-02T14:29:00.260Z,34.93
2022-08-02T14:34:03.047Z,38.66
2022-08-02T14:39:05.804Z,42.03
2022-08-02T14:44:08.473Z,41.86
2022-08-02T14:49:14.471Z,39.72
2022-08-02T14:54:31.343Z,41.31
2022-08-02T14:59:33.895Z,37.15
2022-08-02T15:04:43.139Z,36.70
2022-08-02T15:09:45.974Z,37.13
2022-08-02T15:14:48.485Z,42.22
2022-08-02T15:19:57.458Z,35.97
2022-08-02T15:25:03.664Z,35.78
2022-08-02T15:30:17.001Z,40.88
2022-08-02T15:35:19.463Z,37.31
2022-08-02T15:40:24.194Z,38.32
2022-08-02T15:45:27.924Z,43.65
2022-08-02T15:50:30.603Z,43.30
2022-08-02T15:55:40.108Z,38.53
2022-08-02T16:00:55.681Z,43.22
2022-08-02T16:05:58.243Z,39.19
2022-08-02T16:11:00.733Z,43.92
2022-08-02T16:16:03.323Z,41.60
2022-08-02T16:21:05.767Z,47.62
2022-08-02T16:26:08.221Z,48.01
2022-08-02T16:31:11.646Z,49.01
2022-08-02T16:36:15.499Z,39.78
2022-08-02T16:41:22.686Z,47.08
2022-08-02T16:46:25.187Z,48.94
2022-08-02T16:51:27.749Z,49.41
2022-08-02T16:56:33.616Z,48.25
2022-08-02T17:02:03.173Z,40.94
2022-08-02T17:06:58.731Z,46.83
2022-08-02T17:12:01.669Z,44.14
2022-08-02T17:17:04.327Z,48.41
2022-08-02T17:22:06.863Z,50.40
2022-08-02T17:27:13.433Z,50.90
2022-08-02T17:32:18.887Z,42.69
2022-08-02T17:37:21.902Z,42.38
2022-08-02T17:42:25.036Z,46.71
2022-08-02T17:47:30.609Z,43.93
2022-08-02T17:52:50.382Z,44.58
2022-08-02T17:57:58.506Z,42.36
2022-08-02T18:03:05.479Z,49.10
2022-08-02T18:08:08.781Z,51.66
2022-08-02T18:13:11.222Z,53.61
2022-08-02T18:18:19.217Z,52.70
2022-08-02T18:23:32.587Z,44.80
2022-08-02T18:28:40.444Z,44.73
2022-08-02T18:33:59.675Z,43.95
2022-08-02T18:39:08.454Z,44.23
2022-08-02T18:44:15.781Z,52.02
2022-08-02T18:49:19.022Z,50.99
2022-08-02T18:54:26.826Z,47.20
2022-08-02T18:59:37.622Z,47.46
2022-08-02T19:04:43.678Z,50.75
2022-08-02T19:09:49.726Z,53.02
2022-08-02T19:14:52.670Z,56.08
2022-08-02T19:19:56.232Z,56.76
2022-08-02T19:24:59.972Z,57.47
2022-08-02T19:30:07.702Z,48.64
2022-08-02T19:35:19.542Z,51.99
2022-08-02T19:40:32.738Z,48.58
2022-08-02T19:45:49.725Z,49.24
2022-08-02T19:50:56.816Z,50.72
2022-08-02T19:56:04.113Z,49.67
2022-08-02T20:01:07.712Z,49.70
2022-08-02T20:06:19.964Z,50.17
2022-08-02T20:11:35.131Z,58.54
2022-08-02T20:16:37.947Z,58.28
2022-08-02T20:21:50.509Z,50.23
2022-08-02T20:26:59.257Z,58.48
2022-08-02T20:32:24.150Z,57.65
2022-08-02T20:37:59.191Z,56.83
2022-08-02T20:42:49.213Z,51.17
2022-08-02T20:47:54.484Z,58.28
2022-08-02T20:52:57.148Z,56.55
2022-08-02T20:58:02.695Z,57.76
2022-08-02T21:03:06.543Z,56.86
2022-08-02T21:08:13.782Z,58.89
2022-08-02T21:13:22.183Z,59.29
2022-08-02T21:18:40.955Z,56.93
2022-08-02T21:23:44.922Z,55.82
2022-08-02T21:28:57.197Z,58.78
2022-08-02T21:34:00.998Z,56.14
2022-08-02T21:39:09.330Z,52.99
2022-08-02T21:44:12.317Z,54.72
2022-08-02T21:49:16.258Z,56.07
2022-08-02T21:54:22.109Z,52.77
2022-08-02T21:59:26.156Z,57.17
2022-08-02T22:04:29.677Z,60.30
2022-08-02T22:09:43.256Z,51.53
2022-08-02T22:14:55.009Z,57.40
2022-08-02T22:19:59.243Z,54.13
2022-08-02T22:25:04.230Z,58.17
2022-08-02T22:30:07.507Z,60.91
2022-08-02T22:35:12.394Z,51.91
2022-08-02T22:40:15.031Z,53.36
2022-08-02T22:45:17.516Z,52.26
2022-08-02T22:50:20.543Z,54.06
2022-08-02T22:55:23.573Z,60.88
2022-08-02T23:00:26.903Z,63.01
2022-08-02T23:05:29.438Z,53.40
2022-08-02T23:10:32.331Z,62.67
2022-08-02T23:15:54.712Z,53.32
2022-08-02T23:20:57.147Z,60.41
2022-08-02T23:25:59.659Z,56.85
2022-08-02T23:31:22.036Z,62.95
2022-08-02T23:36:24.496Z,61.97
2022-08-02T23:41:28.322Z,52.61
2022-08-02T23:46:30.790Z,54.48
2022-08-02T23:51:33.216Z,54.86
2022-08-02T23:56:35.892Z,62.60
